Time;durP1;ratioP1;P1;durP2;ratioP2;P2;SDS_P1;SDS_P2;PMS_P1;PMS_P2;Temp;Humidity;BMP_temperature;BMP_pressure;BME280_temperature;BME280_humidity;BME280_pressure;Samples;Min_cycle;Max_cycle;Signal;HPM_P1;HPM_P2
2024/01/24 00:02:04;;;;;;;0.20;0.20;;;;;;;11.99;100.00;101241.59;5095751;28;20032;-56
2024/01/24 00:04:29;;;;;;;0.10;0.10;;;;;;;12.01;100.00;101251.13;5096228;28;20035;-56
2024/01/24 00:06:54;;;;;;;0.20;0.20;;;;;;;12.01;100.00;101235.63;5096419;28;20479;-56
2024/01/24 00:09:19;;;;;;;0.20;0.20;;;;;;;12.03;100.00;101243.41;5095318;28;20459;-54
2024/01/24 00:11:45;;;;;;;0.20;0.20;;;;;;;12.07;100.00;101250.47;5096294;28;20020;-56
2024/01/24 00:14:10;;;;;;;0.20;0.20;;;;;;;12.12;100.00;101269.56;5096058;28;20027;-56
2024/01/24 00:16:36;;;;;;;0.20;0.20;;;;;;;12.11;100.00;101260.06;5095658;28;20028;-56
2024/01/24 00:19:01;;;;;;;0.20;0.20;;;;;;;12.13;100.00;101279.03;5095962;28;20017;-56
2024/01/24 00:21:26;;;;;;;0.20;0.20;;;;;;;12.16;100.00;101273.09;5095840;28;20020;-56
2024/01/24 00:23:52;;;;;;;0.20;0.20;;;;;;;12.14;100.00;101257.53;5095290;28;20466;-56
2024/01/24 00:26:17;;;;;;;0.20;0.20;;;;;;;12.18;100.00;101261.97;5095824;28;20028;-56
2024/01/24 00:28:43;;;;;;;0.20;0.20;;;;;;;12.16;100.00;101242.97;5096221;28;20024;-56
2024/01/24 00:31:09;;;;;;;0.20;0.20;;;;;;;12.16;100.00;101230.06;5095311;28;20027;-56
2024/01/24 00:33:34;;;;;;;0.20;0.20;;;;;;;12.19;100.00;101235.31;5095746;28;20106;-56
2024/01/24 00:35:59;;;;;;;0.20;0.20;;;;;;;12.23;100.00;101236.28;5095725;28;20103;-56
2024/01/24 00:38:25;;;;;;;0.20;0.20;;;;;;;12.23;100.00;101235.41;5094556;28;20530;-57
2024/01/24 00:40:51;;;;;;;0.20;0.20;;;;;;;12.22;100.00;101216.44;5095732;28;20038;-56
2024/01/24 00:43:16;;;;;;;0.20;0.20;;;;;;;12.27;100.00;101226.91;5095429;28;20024;-57
2024/01/24 00:45:41;;;;;;;0.20;0.20;;;;;;;12.23;100.00;101225.94;5094854;28;20102;-56
2024/01/24 00:48:07;;;;;;;0.20;0.20;;;;;;;12.29;100.00;101214.88;5095702;28;20086;-56
2024/01/24 00:50:34;;;;;;;0.20;0.20;;;;;;;12.32;100.00;101241.69;5095330;28;20111;-56
2024/01/24 00:53:03;;;;;;;0.20;0.20;;;;;;;12.35;100.00;101230.56;5094519;28;20017;-56
2024/01/24 00:55:30;;;;;;;0.20;0.20;;;;;;;12.32;100.00;101230.50;5095007;28;20455;-56
2024/01/24 00:57:56;;;;;;;0.20;0.20;;;;;;;12.19;100.00;101224.09;5095504;28;20087;-56
2024/01/24 01:00:21;;;;;;;0.13;0.13;;;;;;;12.06;100.00;101209.94;5094525;28;20031;-56
2024/01/24 01:02:47;;;;;;;0.20;0.20;;;;;;;12.01;100.00;101208.94;5095359;28;20032;-56
2024/01/24 01:05:12;;;;;;;0.20;0.20;;;;;;;11.94;100.00;101214.69;5094211;28;20111;-56
2024/01/24 01:07:37;;;;;;;0.20;0.20;;;;;;;11.83;100.00;101215.25;5095224;28;20043;-56
2024/01/24 01:10:03;;;;;;;0.20;0.20;;;;;;;11.75;100.00;101206.41;5095376;28;20024;-56
2024/01/24 01:12:28;;;;;;;0.20;0.20;;;;;;;11.63;100.00;101208.59;5094320;28;20409;-56
2024/01/24 01:14:53;;;;;;;0.20;0.20;;;;;;;11.53;100.00;101207.47;5095097;28;20036;-55
2024/01/24 01:17:18;;;;;;;0.20;0.20;;;;;;;11.47;100.00;101221.03;5094885;28;20028;-54
2024/01/24 01:19:44;;;;;;;0.20;0.20;;;;;;;11.42;100.00;101207.09;5094301;28;20028;-56
2024/01/24 01:22:09;;;;;;;0.20;0.20;;;;;;;11.38;100.00;101184.63;5094819;28;20018;-56
2024/01/24 01:24:34;;;;;;;0.20;0.20;;;;;;;11.37;100.00;101200.91;5095020;28;20069;-56
2024/01/24 01:27:00;;;;;;;0.20;0.20;;;;;;;11.37;100.00;101221.56;5094419;28;20024;-56
2024/01/24 01:29:25;;;;;;;0.20;0.20;;;;;;;11.34;100.00;101199.13;5094535;28;20520;-56
2024/01/24 01:31:50;;;;;;;0.20;0.20;;;;;;;11.30;100.00;101194.69;5094856;28;20030;-56
2024/01/24 01:34:16;;;;;;;0.20;0.20;;;;;;;11.30;100.00;101180.94;5093486;28;20024;-56
2024/01/24 01:36:41;;;;;;;0.20;0.20;;;;;;;11.27;100.00;101192.03;5094825;28;20028;-56
2024/01/24 01:39:07;;;;;;;0.20;0.20;;;;;;;11.25;100.00;101203.13;5094880;28;20448;-56
2024/01/24 01:41:32;;;;;;;0.20;0.20;;;;;;;11.28;100.00;101204.06;5093598;28;20024;-56
2024/01/24 01:43:57;;;;;;;0.20;0.20;;;;;;;11.26;100.00;101220.31;5094444;28;20044;-56
2024/01/24 01:46:25;;;;;;;0.20;0.20;;;;;;;11.26;100.00;101205.75;5094300;28;20410;-56
2024/01/24 01:48:50;;;;;;;0.20;0.20;;;;;;;11.26;100.00;101210.00;5093727;28;20097;-55
2024/01/24 01:51:22;;;;;;;0.20;0.20;;;;;;;11.18;100.00;101212.34;5094167;28;20055;-56
2024/01/24 01:53:48;;;;;;;0.20;0.20;;;;;;;11.15;100.00;101200.22;5094418;28;20024;-56
2024/01/24 01:56:16;;;;;;;0.20;0.20;;;;;;;11.13;100.00;101227.69;5093182;28;20031;-56
2024/01/24 01:58:43;;;;;;;0.20;0.20;;;;;;;11.12;100.00;101233.66;5094255;28;20519;-56
2024/01/24 02:01:09;;;;;;;0.30;0.30;;;;;;;11.07;100.00;101208.56;5094290;28;20040;-56
2024/01/24 02:03:34;;;;;;;0.20;0.20;;;;;;;11.01;100.00;101206.63;5093371;28;20103;-56
2024/01/24 02:06:00;;;;;;;0.20;0.20;;;;;;;10.98;100.00;101204.81;5093445;28;20032;-56
2024/01/24 02:08:26;;;;;;;0.20;0.20;;;;;;;10.96;100.00;101201.34;5092974;28;20372;-56
2024/01/24 02:10:51;;;;;;;0.20;0.20;;;;;;;10.92;100.00;101199.44;5094181;28;20020;-56
2024/01/24 02:13:17;;;;;;;0.20;0.20;;;;;;;10.89;100.00;101198.50;5093751;28;20031;-56
2024/01/24 02:15:42;;;;;;;0.20;0.20;;;;;;;10.87;100.00;101191.56;5092832;28;20345;-55
2024/01/24 02:18:07;;;;;;;0.20;0.20;;;;;;;10.84;100.00;101198.31;5094017;28;20024;-55
2024/01/24 02:20:33;;;;;;;0.20;0.20;;;;;;;10.81;100.00;101200.81;5093568;28;20050;-56
2024/01/24 02:22:58;;;;;;;0.20;0.20;;;;;;;10.80;100.00;101197.34;5093075;28;20028;-56
2024/01/24 02:25:24;;;;;;;0.20;0.20;;;;;;;10.77;100.00;101181.78;5093642;28;20103;-56
2024/01/24 02:27:49;;;;;;;0.30;0.30;;;;;;;10.81;100.00;101175.03;5093847;28;20020;-56
2024/01/24 02:30:14;;;;;;;0.20;0.20;;;;;;;10.78;100.00;101195.53;5092650;28;20020;-56
2024/01/24 02:32:40;;;;;;;0.20;0.20;;;;;;;10.76;100.00;101200.63;5093531;28;20383;-55
2024/01/24 02:35:06;;;;;;;0.20;0.20;;;;;;;10.77;100.00;101198.94;5093514;28;20032;-56
2024/01/24 02:37:31;;;;;;;0.25;0.25;;;;;;;10.74;100.00;101199.69;5092376;28;20096;-56
2024/01/24 02:39:57;;;;;;;0.30;0.30;;;;;;;10.76;100.00;101195.47;5094076;28;20039;-56
2024/01/24 02:42:22;;;;;;;0.20;0.20;;;;;;;10.79;100.00;101218.78;5093297;28;20479;-56
2024/01/24 02:44:47;;;;;;;0.20;0.20;;;;;;;10.81;100.00;101226.59;5092519;28;20051;-56
2024/01/24 02:47:12;;;;;;;0.20;0.20;;;;;;;10.79;100.00;101211.03;5093306;28;20117;-56
2024/01/24 02:49:39;;;;;;;0.20;0.20;;;;;;;10.81;100.00;101217.16;5093351;28;20533;-56
2024/01/24 02:52:05;;;;;;;0.20;0.20;;;;;;;10.82;100.00;101218.91;5092807;28;20035;-56
2024/01/24 02:54:30;;;;;;;0.20;0.20;;;;;;;10.82;100.00;101229.22;5092997;28;20032;-55
2024/01/24 02:56:55;;;;;;;0.20;0.20;;;;;;;10.81;100.00;101214.56;5093432;28;20099;-56
2024/01/24 02:59:21;;;;;;;0.30;0.30;;;;;;;10.83;100.00;101184.56;5092096;28;20107;-55
2024/01/24 03:01:46;;;;;;;0.20;0.20;;;;;;;10.84;100.00;101191.44;5093128;28;20021;-56
2024/01/24 03:04:12;;;;;;;0.20;0.20;;;;;;;10.86;100.00;101184.66;5092780;28;20134;-56
2024/01/24 03:06:39;;;;;;;0.20;0.20;;;;;;;10.90;100.00;101195.06;5092201;28;20514;-56
2024/01/24 03:09:04;;;;;;;0.20;0.20;;;;;;;10.89;100.00;101198.50;5093242;28;20070;-56
2024/01/24 03:11:30;;;;;;;0.20;0.20;;;;;;;10.89;100.00;101212.25;5092725;28;20493;-56
2024/01/24 03:13:55;;;;;;;0.30;0.30;;;;;;;10.86;100.00;101205.28;5092243;28;20515;-56
2024/01/24 03:16:20;;;;;;;0.20;0.20;;;;;;;10.90;100.00;101197.66;5092698;28;20020;-56
2024/01/24 03:18:47;;;;;;;0.20;0.20;;;;;;;10.90;100.00;101187.31;5092190;28;20476;-56
2024/01/24 03:21:17;;;;;;;0.20;0.20;;;;;;;10.90;100.00;101226.00;5092611;28;20095;-56
2024/01/24 03:23:42;;;;;;;0.20;0.20;;;;;;;10.90;100.00;101198.53;5093064;28;20024;-56
2024/01/24 03:26:08;;;;;;;0.20;0.20;;;;;;;10.95;100.00;101221.88;5092097;28;20054;-56
2024/01/24 03:28:34;;;;;;;0.30;0.30;;;;;;;11.04;100.00;101238.56;5092783;28;20028;-56
2024/01/24 03:31:02;;;;;;;0.20;0.20;;;;;;;11.09;100.00;101250.72;5092842;28;20062;-56
2024/01/24 03:33:28;;;;;;;0.20;0.20;;;;;;;11.17;100.00;101237.28;5091658;28;20052;-56
2024/01/24 03:35:53;;;;;;;0.20;0.20;;;;;;;11.22;100.00;101275.25;5092747;28;20427;-56
2024/01/24 03:38:20;;;;;;;0.20;0.20;;;;;;;11.24;100.00;101268.44;5092367;28;20036;-56
2024/01/24 03:40:45;;;;;;;0.20;0.20;;;;;;;11.24;100.00;101276.19;5092022;28;20028;-55
2024/01/24 03:43:11;;;;;;;0.10;0.10;;;;;;;11.25;100.00;101275.38;5092091;28;20499;-56
2024/01/24 03:45:37;;;;;;;0.30;0.30;;;;;;;11.25;100.00;101265.03;5092706;28;20020;-55
2024/01/24 03:48:04;;;;;;;0.20;0.20;;;;;;;11.30;100.00;101271.25;5091927;28;20102;-55
2024/01/24 03:50:29;;;;;;;0.20;0.20;;;;;;;11.33;100.00;101284.22;5092521;28;20020;-56
2024/01/24 03:52:54;;;;;;;0.20;0.20;;;;;;;11.28;100.00;101306.41;5092799;28;20523;-56
2024/01/24 03:55:19;;;;;;;0.20;0.20;;;;;;;11.31;100.00;101298.78;5091566;28;20036;-56
2024/01/24 03:57:45;;;;;;;0.20;0.20;;;;;;;11.30;100.00;101304.78;5092409;28;20467;-56
2024/01/24 04:00:11;;;;;;;0.30;0.30;;;;;;;11.31;100.00;101284.19;5092455;28;20020;-56
2024/01/24 04:02:36;;;;;;;0.30;0.30;;;;;;;11.35;100.00;101287.75;5091747;28;20031;-55
2024/01/24 04:05:02;;;;;;;0.15;0.15;;;;;;;11.34;100.00;101304.06;5092598;28;20020;-56
2024/01/24 04:07:27;;;;;;;0.20;0.20;;;;;;;11.38;100.00;101268.91;5092405;28;20031;-56
2024/01/24 04:09:52;;;;;;;0.20;0.20;;;;;;;11.39;100.00;101283.53;5091684;28;20119;-55
2024/01/24 04:12:18;;;;;;;0.20;0.20;;;;;;;11.39;100.00;101271.53;5092428;28;20016;-56
2024/01/24 04:14:43;;;;;;;0.20;0.20;;;;;;;11.39;100.00;101274.13;5092377;28;20081;-56
2024/01/24 04:17:09;;;;;;;0.20;0.20;;;;;;;11.38;100.00;101267.19;5091540;28;20028;-56
2024/01/24 04:19:34;;;;;;;0.20;0.20;;;;;;;11.36;100.00;101274.88;5092113;28;20036;-56
2024/01/24 04:21:59;;;;;;;0.20;0.20;;;;;;;11.31;100.00;101281.59;5091939;28;20017;-56
2024/01/24 04:24:24;;;;;;;0.20;0.20;;;;;;;11.27;100.00;101290.06;5092167;28;20073;-56
2024/01/24 04:26:50;;;;;;;0.20;0.20;;;;;;;11.22;100.00;101304.53;5092447;28;20369;-56
2024/01/24 04:29:16;;;;;;;0.20;0.20;;;;;;;11.20;100.00;101322.50;5094271;28;20028;-55
2024/01/24 04:31:42;;;;;;;0.30;0.30;;;;;;;11.19;100.00;101338.84;5096012;28;20024;-56
2024/01/24 04:34:07;;;;;;;0.20;0.20;;;;;;;11.22;100.00;101313.94;5095821;28;20028;-56
2024/01/24 04:36:33;;;;;;;0.20;0.20;;;;;;;11.20;100.00;101317.34;5095010;28;20432;-56
2024/01/24 04:38:59;;;;;;;0.20;0.20;;;;;;;11.18;100.00;101347.38;5095997;28;20081;-56
2024/01/24 04:41:24;;;;;;;0.10;0.10;;;;;;;11.13;100.00;101314.50;5095348;28;20107;-55
2024/01/24 04:43:50;;;;;;;0.20;0.20;;;;;;;11.13;100.00;101325.72;5095123;28;20127;-56
2024/01/24 04:46:15;;;;;;;0.20;0.20;;;;;;;11.09;100.00;101331.59;5095329;28;20464;-56
2024/01/24 04:48:43;;;;;;;0.20;0.20;;;;;;;11.08;100.00;101360.78;5095635;28;20112;-56
2024/01/24 04:51:11;;;;;;;0.20;0.20;;;;;;;11.02;100.00;101350.25;5094909;28;20139;-56
2024/01/24 04:53:36;;;;;;;0.20;0.20;;;;;;;10.96;100.00;101348.34;5095619;28;20034;-56
2024/01/24 04:56:02;;;;;;;0.30;0.30;;;;;;;10.93;100.00;101330.16;5095733;28;20067;-56
2024/01/24 04:58:28;;;;;;;0.20;0.20;;;;;;;10.94;100.00;101320.72;5094097;28;20387;-56
2024/01/24 05:00:53;;;;;;;0.20;0.20;;;;;;;10.92;100.00;101340.41;5095418;28;20107;-56
2024/01/24 05:03:18;;;;;;;0.20;0.20;;;;;;;10.91;100.00;101330.91;5095431;28;20031;-56
2024/01/24 05:05:44;;;;;;;0.20;0.20;;;;;;;10.91;100.00;101359.28;5094519;28;20028;-56
2024/01/24 05:08:09;;;;;;;0.20;0.20;;;;;;;10.87;100.00;101346.28;5095309;28;20024;-55
2024/01/24 05:10:34;;;;;;;0.20;0.20;;;;;;;10.86;100.00;101354.84;5095511;28;20048;-56
2024/01/24 05:12:59;;;;;;;0.20;0.20;;;;;;;10.85;100.00;101373.72;5094651;28;20028;-56
2024/01/24 05:15:25;;;;;;;0.22;0.22;;;;;;;10.83;100.00;101374.47;5094799;28;20032;-56
2024/01/24 05:17:50;;;;;;;0.20;0.20;;;;;;;10.83;100.00;101390.84;5095079;28;20372;-55
2024/01/24 05:20:17;;;;;;;0.20;0.20;;;;;;;10.83;100.00;101400.25;5094191;28;20069;-56
2024/01/24 05:22:43;;;;;;;0.22;0.22;;;;;;;10.79;100.00;101419.88;5095093;28;20456;-56
2024/01/24 05:25:08;;;;;;;0.20;0.20;;;;;;;10.79;100.00;101401.84;5094944;28;20023;-56
2024/01/24 05:27:33;;;;;;;0.20;0.20;;;;;;;10.82;100.00;101401.06;5094059;28;20077;-56
2024/01/24 05:29:59;;;;;;;0.30;0.30;;;;;;;10.83;100.00;101405.41;5095099;28;20035;-56
2024/01/24 05:32:24;;;;;;;0.30;0.30;;;;;;;10.80;100.00;101398.44;5093761;28;20049;-56
2024/01/24 05:34:49;;;;;;;0.28;0.28;;;;;;;10.82;100.00;101401.97;5095076;28;20032;-57
2024/01/24 05:37:14;;;;;;;0.20;0.20;;;;;;;10.81;100.00;101396.78;5094352;28;20426;-56
2024/01/24 05:39:41;;;;;;;0.20;0.20;;;;;;;10.79;100.00;101412.16;5092986;28;20028;-56
2024/01/24 05:42:07;;;;;;;0.20;0.20;;;;;;;10.77;100.00;101406.09;5094090;28;20059;-56
2024/01/24 05:44:34;;;;;;;0.17;0.17;;;;;;;10.75;100.00;101406.84;5094198;28;20072;-56
2024/01/24 05:46:59;;;;;;;0.20;0.20;;;;;;;10.72;100.00;101392.13;5093657;28;20395;-57
2024/01/24 05:49:24;;;;;;;0.30;0.30;;;;;;;10.74;100.00;101398.22;5094341;28;20103;-56
2024/01/24 05:51:50;;;;;;;0.30;0.30;;;;;;;10.71;100.00;101416.16;5094541;28;20016;-56
2024/01/24 05:54:16;;;;;;;0.25;0.25;;;;;;;10.69;100.00;101397.16;5093399;28;20614;-56
2024/01/24 05:56:41;;;;;;;0.20;0.20;;;;;;;10.68;100.00;101408.31;5094402;28;20044;-57
2024/01/24 05:59:06;;;;;;;0.20;0.20;;;;;;;10.66;100.00;101391.91;5094340;28;20476;-57
2024/01/24 06:01:31;;;;;;;0.30;0.30;;;;;;;10.62;100.00;101396.06;5093065;28;20032;-56
2024/01/24 06:03:57;;;;;;;0.20;0.20;;;;;;;10.63;100.00;101404.69;5094418;28;20475;-57
2024/01/24 06:06:22;;;;;;;0.20;0.20;;;;;;;10.64;100.00;101409.88;5094044;28;20024;-57
2024/01/24 06:08:47;;;;;;;0.20;0.20;;;;;;;10.69;100.00;101423.84;5093532;28;20020;-55
2024/01/24 06:11:14;;;;;;;0.20;0.20;;;;;;;10.69;100.00;101459.03;5093809;28;20024;-56
2024/01/24 06:13:40;;;;;;;0.20;0.20;;;;;;;10.68;100.00;101442.69;5093886;28;20424;-56
2024/01/24 06:16:06;;;;;;;0.20;0.20;;;;;;;10.68;100.00;101457.28;5093105;28;20069;-56
2024/01/24 06:18:32;;;;;;;0.25;0.25;;;;;;;10.64;100.00;101461.44;5093639;28;20032;-56
2024/01/24 06:20:57;;;;;;;0.30;0.30;;;;;;;10.64;100.00;101471.75;5093803;28;20024;-57
2024/01/24 06:23:22;;;;;;;0.20;0.20;;;;;;;10.63;100.00;101469.13;5092933;28;20472;-56
2024/01/24 06:25:47;;;;;;;0.20;0.20;;;;;;;10.58;100.00;101480.94;5094132;28;20031;-57
2024/01/24 06:28:13;;;;;;;0.20;0.20;;;;;;;10.51;100.00;101479.84;5093675;28;20372;-57
2024/01/24 06:30:38;;;;;;;0.30;0.30;;;;;;;10.48;100.00;101501.22;5092882;28;20020;-56
2024/01/24 06:33:04;;;;;;;0.20;0.20;;;;;;;10.48;100.00;101506.38;5093860;28;20020;-56
2024/01/24 06:35:31;;;;;;;0.28;0.28;;;;;;;10.40;100.00;101528.34;5093486;28;20069;-56
2024/01/24 06:37:56;;;;;;;0.30;0.30;;;;;;;10.33;100.00;101536.63;5092971;28;20031;-56
2024/01/24 06:40:22;;;;;;;0.28;0.28;;;;;;;10.30;100.00;101539.94;5093169;28;20024;-56
2024/01/24 06:42:47;;;;;;;0.30;0.30;;;;;;;10.29;100.00;101548.50;5092769;28;20023;-56
2024/01/24 06:45:12;;;;;;;0.20;0.20;;;;;;;10.26;100.00;101550.06;5092853;28;20040;-56
2024/01/24 06:47:38;;;;;;;0.20;0.20;;;;;;;10.28;100.00;101561.31;5093547;28;20031;-56
2024/01/24 06:50:07;;;;;;;0.28;0.28;;;;;;;10.30;100.00;101567.41;5092801;28;20472;-57
2024/01/24 06:52:32;;;;;;;0.30;0.30;;;;;;;10.26;100.00;101565.50;5093007;28;20099;-56
2024/01/24 06:54:57;;;;;;;0.20;0.20;;;;;;;10.24;100.00;101593.78;5093415;28;20586;-57
2024/01/24 06:57:23;;;;;;;0.20;0.20;;;;;;;10.16;100.00;101593.47;5092000;28;20523;-57
2024/01/24 06:59:48;;;;;;;0.30;0.30;;;;;;;10.17;100.00;101602.06;5093218;28;20024;-56
2024/01/24 07:02:14;;;;;;;0.13;0.13;;;;;;;10.04;100.00;101598.97;5092764;28;20483;-56
2024/01/24 07:04:39;;;;;;;0.22;0.22;;;;;;;9.96;100.00;101594.28;5092605;28;20028;-56
2024/01/24 07:07:05;;;;;;;0.28;0.28;;;;;;;9.92;100.00;101593.25;5093220;28;20028;-57
2024/01/24 07:09:30;;;;;;;0.30;0.30;;;;;;;9.87;100.00;101592.19;5092592;28;20063;-57
2024/01/24 07:11:56;;;;;;;0.30;0.30;;;;;;;9.83;100.00;101591.16;5092177;28;20028;-56
2024/01/24 07:14:21;;;;;;;0.20;0.20;;;;;;;9.72;100.00;101608.69;5092614;28;20078;-56
2024/01/24 07:16:46;;;;;;;0.20;0.20;;;;;;;9.67;100.00;101607.63;5093136;28;20480;-56
2024/01/24 07:19:12;;;;;;;0.20;0.20;;;;;;;9.65;100.00;101604.06;5092095;28;20054;-56
2024/01/24 07:21:37;;;;;;;0.30;0.30;;;;;;;9.59;100.00;101621.81;5092677;28;20019;-56
2024/01/24 07:24:03;;;;;;;0.30;0.30;;;;;;;9.55;100.00;101633.66;5092369;28;20125;-57
2024/01/24 07:26:28;;;;;;;0.30;0.30;;;;;;;9.55;100.00;101623.38;5091416;28;20020;-57
2024/01/24 07:28:54;;;;;;;0.30;0.30;;;;;;;9.55;100.00;101625.06;5092252;28;20024;-57
2024/01/24 07:31:19;;;;;;;0.20;0.20;;;;;;;9.52;100.00;101618.06;5092065;28;20543;-54
2024/01/24 07:33:45;;;;;;;0.20;0.20;;;;;;;9.48;100.00;101639.34;5091349;28;20468;-57
2024/01/24 07:36:10;;;;;;;0.20;0.20;;;;;;;9.43;100.00;101658.81;5091460;28;20024;-56
2024/01/24 07:38:37;;;;;;;0.30;0.30;;;;;;;9.47;100.00;101653.00;5091966;28;20066;-57
2024/01/24 07:41:02;;;;;;;0.30;0.30;;;;;;;9.41;100.00;101655.28;5091533;28;20134;-56
2024/01/24 07:43:29;;;;;;;0.20;0.20;;;;;;;9.39;100.00;101628.63;5091619;28;20150;-57
2024/01/24 07:45:54;;;;;;;0.30;0.30;;;;;;;9.35;100.00;101637.88;5092385;28;20035;-57
2024/01/24 07:48:19;;;;;;;0.20;0.20;;;;;;;9.34;100.00;101660.97;5091365;28;20106;-57
2024/01/24 07:50:45;;;;;;;0.20;0.20;;;;;;;9.41;100.00;101660.41;5092196;28;20162;-57
2024/01/24 07:53:11;;;;;;;0.20;0.20;;;;;;;9.39;100.00;101682.63;5091582;28;20045;-57
2024/01/24 07:55:37;;;;;;;0.20;0.20;;;;;;;9.37;100.00;101691.97;5092521;28;20035;-57
2024/01/24 07:58:02;;;;;;;0.30;0.30;;;;;;;9.36;100.00;101705.63;5092513;28;20024;-56
2024/01/24 08:00:27;;;;;;;0.30;0.30;;;;;;;9.33;100.00;101679.78;5091375;28;20024;-56
2024/01/24 08:02:53;;;;;;;0.30;0.30;;;;;;;9.29;100.00;101677.88;5093476;28;20028;-56
2024/01/24 08:05:19;;;;;;;0.30;0.30;;;;;;;9.30;100.00;101684.78;5096108;28;20357;-57
2024/01/24 08:07:44;;;;;;;0.30;0.30;;;;;;;9.30;100.00;101664.19;5095857;28;20513;-57
2024/01/24 08:10:13;;;;;;;0.20;0.20;;;;;;;9.25;100.00;101691.38;5096270;28;20024;-56
2024/01/24 08:12:39;;;;;;;0.20;0.20;;;;;;;9.21;100.00;101686.06;5096331;28;20379;-57
2024/01/24 08:15:07;;;;;;;0.20;0.20;;;;;;;9.16;100.00;101699.53;5095594;28;20414;-56
2024/01/24 08:17:36;;;;;;;0.30;0.30;;;;;;;9.18;100.00;101716.81;5095902;28;20111;-56
2024/01/24 08:20:04;;;;;;;0.20;0.20;;;;;;;9.17;100.00;101733.03;5096068;28;20108;-57
2024/01/24 08:22:30;;;;;;;0.20;0.20;;;;;;;9.20;100.00;101728.03;5095230;28;20024;-57
2024/01/24 08:24:55;;;;;;;0.20;0.20;;;;;;;9.22;100.00;101736.72;5096116;28;20035;-57
2024/01/24 08:27:21;;;;;;;0.30;0.30;;;;;;;9.22;100.00;101734.16;5095789;28;20027;-56
2024/01/24 08:29:46;;;;;;;0.22;0.22;;;;;;;9.27;100.00;101746.34;5095548;28;20024;-57
2024/01/24 08:32:11;;;;;;;0.30;0.30;;;;;;;9.29;100.00;101724.16;5095563;28;20031;-57
2024/01/24 08:34:37;;;;;;;0.30;0.30;;;;;;;9.28;100.00;101738.69;5095806;28;20504;-56
2024/01/24 08:37:02;;;;;;;0.30;0.30;;;;;;;9.27;100.00;101742.09;5094570;28;20121;-56
2024/01/24 08:39:27;;;;;;;0.30;0.30;;;;;;;9.30;100.00;101773.13;5095368;28;20115;-55
2024/01/24 08:41:53;;;;;;;0.30;0.30;;;;;;;9.32;100.00;101760.31;5095664;28;20042;-56
2024/01/24 08:44:18;;;;;;;0.30;0.30;;;;;;;9.31;100.00;101773.97;5094666;28;20036;-55
2024/01/24 08:46:43;;;;;;;0.30;0.30;;;;;;;9.34;100.00;101774.16;5095652;28;20024;-56
2024/01/24 08:49:12;;;;;;;0.20;0.20;;;;;;;9.37;100.00;101776.88;5095661;28;20111;-56
2024/01/24 08:51:37;;;;;;;0.30;0.30;;;;;;;9.42;100.00;101798.56;5094872;28;20490;-57
2024/01/24 08:54:03;;;;;;;0.28;0.28;;;;;;;9.43;100.00;101787.47;5095441;28;20099;-55
2024/01/24 08:56:28;;;;;;;0.30;0.30;;;;;;;9.45;100.00;101772.09;5094497;28;20604;-56
2024/01/24 08:58:53;;;;;;;0.30;0.30;;;;;;;9.47;100.00;101785.94;5095574;28;20055;-56
2024/01/24 09:01:19;;;;;;;0.30;0.30;;;;;;;9.46;100.00;101779.00;5095322;28;20027;-52
2024/01/24 09:03:46;;;;;;;0.30;0.30;;;;;;;9.47;100.00;101807.38;5094724;28;20020;-55
2024/01/24 09:06:12;;;;;;;0.20;0.20;;;;;;;9.48;100.00;101834.03;5095132;28;20024;-56
2024/01/24 09:08:37;;;;;;;0.20;0.20;;;;;;;9.47;100.00;101838.28;5095247;28;20016;-55
2024/01/24 09:11:03;;;;;;;0.30;0.30;;;;;;;9.48;100.00;101845.19;5094465;28;20027;-55
2024/01/24 09:13:28;;;;;;;0.20;0.20;;;;;;;9.44;100.00;101817.53;5094874;28;20020;-56
2024/01/24 09:15:54;;;;;;;0.20;0.20;;;;;;;9.47;100.00;101799.66;5095324;28;20032;-56
2024/01/24 09:18:19;;;;;;;0.30;0.30;;;;;;;9.46;100.00;101813.34;5093994;28;20024;-56
2024/01/24 09:20:44;;;;;;;0.30;0.30;;;;;;;9.46;100.00;101823.63;5095317;28;20023;-56
2024/01/24 09:23:10;;;;;;;0.20;0.20;;;;;;;9.51;100.00;101818.72;5094746;28;20089;-57
2024/01/24 09:25:35;;;;;;;0.30;0.30;;;;;;;9.56;100.00;101843.00;5094297;28;20026;-57
2024/01/24 09:28:00;;;;;;;0.30;0.30;;;;;;;9.61;100.00;101856.09;5094898;28;20027;-56
2024/01/24 09:30:26;;;;;;;0.22;0.22;;;;;;;9.67;100.00;101858.97;5094754;28;20404;-57
2024/01/24 09:32:51;;;;;;;0.30;0.30;;;;;;;9.68;100.00;101861.63;5094228;28;20379;-56
2024/01/24 09:35:17;;;;;;;0.30;0.30;;;;;;;9.70;100.00;101884.88;5094565;28;20111;-57
2024/01/24 09:37:43;;;;;;;0.20;0.20;;;;;;;9.71;100.00;101884.06;5094738;28;20028;-56
2024/01/24 09:40:09;;;;;;;0.28;0.28;;;;;;;9.73;100.00;101887.59;5093454;28;20035;-56
2024/01/24 09:42:42;;;;;;;0.28;0.28;;;;;;;9.75;100.00;101887.66;5094550;28;20020;-57
2024/01/24 09:45:08;;;;;;;0.30;0.30;;;;;;;9.77;100.00;101901.50;5094120;28;20047;-57
2024/01/24 09:47:34;;;;;;;0.20;0.20;;;;;;;9.75;100.00;101891.13;5093669;28;20024;-56
2024/01/24 09:50:03;;;;;;;0.30;0.30;;;;;;;9.77;100.00;101889.50;5094354;28;20035;-57
2024/01/24 09:52:29;;;;;;;0.30;0.30;;;;;;;9.78;100.00;101886.13;5094170;28;20031;-56
2024/01/24 09:54:59;;;;;;;0.20;0.20;;;;;;;9.79;100.00;101885.31;5093176;28;20024;-56
2024/01/24 09:57:25;;;;;;;0.22;0.22;;;;;;;9.80;100.00;101910.28;5094277;28;20027;-56
2024/01/24 09:59:51;;;;;;;0.20;0.20;;;;;;;9.77;100.00;101914.38;5093553;28;20024;-57
2024/01/24 10:02:17;;;;;;;0.20;0.20;;;;;;;9.75;100.00;101913.41;5094002;28;20050;-57
2024/01/24 10:04:44;;;;;;;0.30;0.30;;;;;;;9.78;100.00;101914.44;5093881;28;20020;-57
2024/01/24 10:07:10;;;;;;;0.20;0.20;;;;;;;9.84;100.00;101917.34;5093188;28;20028;-57
2024/01/24 10:09:36;;;;;;;0.20;0.20;;;;;;;9.87;100.00;101925.19;5094265;28;20333;-57
2024/01/24 10:12:01;;;;;;;0.30;0.30;;;;;;;9.95;100.00;101945.31;5094300;28;20023;-57
2024/01/24 10:14:28;;;;;;;0.20;0.20;;;;;;;10.04;100.00;101950.91;5093172;28;20020;-57
2024/01/24 10:16:53;;;;;;;0.20;0.20;;;;;;;10.08;100.00;101939.06;5094013;28;20028;-57
2024/01/24 10:19:27;;;;;;;0.20;0.20;;;;;;;10.14;100.00;101926.50;5093675;28;20073;-57
2024/01/24 10:21:52;;;;;;;0.20;0.20;;;;;;;10.14;100.00;101932.53;5093209;28;20024;-56
2024/01/24 10:24:18;;;;;;;0.20;0.20;;;;;;;10.18;100.00;101947.31;5093812;28;20486;-57
2024/01/24 10:26:46;;;;;;;0.30;0.30;;;;;;;10.20;100.00;101932.81;5093397;28;20028;-57
2024/01/24 10:29:12;;;;;;;0.30;0.30;;;;;;;10.25;99.14;101950.19;5092979;28;20077;-57
2024/01/24 10:31:37;;;;;;;0.20;0.20;;;;;;;10.30;99.26;101959.03;5093705;28;20036;-57
2024/01/24 10:34:06;;;;;;;0.22;0.22;;;;;;;10.33;99.89;101970.38;5093610;28;20107;-57
2024/01/24 10:36:32;;;;;;;0.20;0.20;;;;;;;10.29;99.92;101962.41;5092580;28;20020;-57
2024/01/24 10:39:05;;;;;;;0.30;0.30;;;;;;;10.32;100.00;101973.75;5093600;28;20112;-57
2024/01/24 10:41:35;;;;;;;0.20;0.20;;;;;;;10.28;98.54;101981.28;5093467;28;20097;-57
2024/01/24 10:44:07;;;;;;;0.28;0.28;;;;;;;10.27;99.03;101984.66;5092499;28;20444;-57
2024/01/24 10:46:33;;;;;;;0.30;0.30;;;;;;;10.26;100.00;101978.59;5093185;28;20016;-56
2024/01/24 10:49:01;;;;;;;0.20;0.20;;;;;;;10.18;98.65;101980.81;5092662;28;20020;-56
2024/01/24 10:51:27;;;;;;;0.20;0.20;;;;;;;10.15;100.00;101985.81;5091705;28;20036;-56
2024/01/24 10:53:54;;;;;;;0.20;0.20;;;;;;;10.14;99.74;101996.94;5093377;28;20069;-57
2024/01/24 10:56:20;;;;;;;0.25;0.25;;;;;;;10.11;99.52;101999.34;5092246;28;20371;-56
2024/01/24 10:58:48;;;;;;;0.30;0.30;;;;;;;10.12;100.00;102011.44;5093069;28;20024;-56
2024/01/24 11:01:13;;;;;;;0.20;0.20;;;;;;;10.11;99.50;101998.47;5092490;28;20032;-56
2024/01/24 11:03:39;;;;;;;0.25;0.25;;;;;;;10.08;99.61;102017.22;5091596;28;20016;-56
2024/01/24 11:06:12;;;;;;;0.30;0.30;;;;;;;10.03;100.00;102019.59;5093196;28;20543;-56
2024/01/24 11:08:45;;;;;;;0.30;0.30;;;;;;;10.04;99.44;101998.19;5093062;28;20114;-56
2024/01/24 11:11:13;;;;;;;0.20;0.20;;;;;;;10.05;100.00;102020.53;5092105;28;20020;-56
2024/01/24 11:13:39;;;;;;;0.20;0.20;;;;;;;10.03;100.00;102011.84;5092392;28;20024;-54